Time;durP1;ratioP1;P1;durP2;ratioP2;P2;SDS_P1;SDS_P2;PMS_P1;PMS_P2;Temp;Humidity;BMP_temperature;BMP_pressure;BME280_temperature;BME280_humidity;BME280_pressure;Samples;Min_cycle;Max_cycle;Signal;HPM_P1;HPM_P2
2021/08/16 00:02:07;;;;;;;3.50;3.20;;;22.30;66.20;;;;;;4960499;28;20179;-73
2021/08/16 00:04:32;;;;;;;4.28;3.90;;;22.30;66.40;;;;;;4959028;28;20186;-73
2021/08/16 00:06:59;;;;;;;3.60;3.47;;;22.30;66.40;;;;;;4964677;28;20210;-72
2021/08/16 00:09:24;;;;;;;3.90;3.70;;;22.20;66.80;;;;;;4959781;28;20198;-73
2021/08/16 00:11:50;;;;;;;4.35;3.65;;;22.20;66.70;;;;;;4952392;28;20174;-72
2021/08/16 00:14:16;;;;;;;4.10;3.67;;;22.20;67.00;;;;;;4961853;28;20182;-72
2021/08/16 00:16:42;;;;;;;3.58;3.38;;;22.20;67.00;;;;;;4957624;28;20655;-72
2021/08/16 00:19:08;;;;;;;3.92;3.72;;;22.10;67.20;;;;;;4959525;28;20214;-72
2021/08/16 00:21:34;;;;;;;4.15;3.83;;;22.10;67.20;;;;;;4957345;28;20745;-72
2021/08/16 00:23:59;;;;;;;4.15;3.85;;;22.00;67.70;;;;;;4956070;28;20575;-73
2021/08/16 00:26:25;;;;;;;5.03;4.07;;;22.00;67.40;;;;;;4957064;28;20217;-72
2021/08/16 00:28:51;;;;;;;6.40;3.85;;;22.00;67.90;;;;;;4958922;28;20189;-72
2021/08/16 00:31:17;;;;;;;4.03;3.83;;;21.90;67.70;;;;;;4958514;28;20238;-73
2021/08/16 00:33:42;;;;;;;4.18;3.78;;;21.90;67.80;;;;;;4960504;28;20783;-73
2021/08/16 00:36:09;;;;;;;3.72;3.63;;;21.80;68.20;;;;;;4957419;28;20182;-72
2021/08/16 00:38:34;;;;;;;3.72;3.45;;;21.80;68.00;;;;;;4959286;28;20906;-72
2021/08/16 00:41:00;;;;;;;4.28;3.97;;;21.80;68.40;;;;;;4962069;28;20186;-72
2021/08/16 00:43:26;;;;;;;3.67;3.53;;;21.70;68.20;;;;;;4955449;28;20189;-73
2021/08/16 00:45:52;;;;;;;7.10;4.57;;;21.70;68.20;;;;;;4954328;28;20185;-72
2021/08/16 00:48:18;;;;;;;5.05;4.57;;;21.70;68.20;;;;;;4961526;28;20265;-72
2021/08/16 00:50:45;;;;;;;5.75;3.78;;;21.70;68.20;;;;;;4958757;28;20183;-72
2021/08/16 00:53:11;;;;;;;4.07;3.78;;;21.70;68.20;;;;;;4958324;28;20187;-73
2021/08/16 00:55:36;;;;;;;4.35;3.95;;;21.70;68.40;;;;;;4958773;28;20186;-72
2021/08/16 00:58:03;;;;;;;4.18;3.90;;;21.70;68.50;;;;;;4955884;28;20198;-72
2021/08/16 01:00:29;;;;;;;4.53;4.22;;;21.60;69.00;;;;;;4958332;28;20214;-73
2021/08/16 01:02:54;;;;;;;3.80;3.58;;;21.60;68.60;;;;;;4958259;28;20193;-72
2021/08/16 01:05:20;;;;;;;3.83;3.63;;;21.50;68.50;;;;;;4956419;28;20246;-73
2021/08/16 01:07:48;;;;;;;4.18;3.90;;;21.50;68.80;;;;;;4955784;28;20202;-72
2021/08/16 01:10:15;;;;;;;4.18;3.92;;;21.40;70.80;;;;;;4956239;28;20260;-72
2021/08/16 01:12:42;;;;;;;4.30;4.00;;;21.30;69.30;;;;;;4958034;28;20571;-72
2021/08/16 01:15:10;;;;;;;4.28;3.88;;;21.30;69.20;;;;;;4961799;28;20183;-72
2021/08/16 01:17:36;;;;;;;4.78;3.75;;;21.30;69.10;;;;;;4956615;28;20183;-72
2021/08/16 01:20:04;;;;;;;5.28;3.75;;;21.20;69.40;;;;;;4974768;28;20755;-73
2021/08/16 01:22:30;;;;;;;3.70;3.55;;;21.20;69.20;;;;;;4954967;28;20191;-72
2021/08/16 01:24:56;;;;;;;4.05;3.78;;;21.10;69.50;;;;;;4955658;28;20245;-72
2021/08/16 01:27:22;;;;;;;3.85;3.58;;;21.10;69.70;;;;;;4960010;28;20620;-72
2021/08/16 01:29:49;;;;;;;4.22;3.95;;;21.00;70.60;;;;;;4957353;28;20191;-72
2021/08/16 01:32:15;;;;;;;4.03;3.58;;;20.90;70.10;;;;;;4962086;28;20186;-72
2021/08/16 01:34:40;;;;;;;4.10;3.80;;;20.90;70.10;;;;;;4962058;28;20197;-72
2021/08/16 01:37:06;;;;;;;4.22;3.83;;;20.90;70.00;;;;;;4957445;28;20186;-73
2021/08/16 01:39:32;;;;;;;4.00;3.72;;;20.90;70.00;;;;;;4962574;28;20238;-72
2021/08/16 01:41:58;;;;;;;3.85;3.65;;;20.90;70.50;;;;;;4960820;28;20682;-72
2021/08/16 01:44:23;;;;;;;3.90;3.63;;;20.90;70.20;;;;;;4957983;28;20195;-72
2021/08/16 01:46:51;;;;;;;3.80;3.60;;;20.80;71.00;;;;;;4963431;28;20190;-72
2021/08/16 01:49:17;;;;;;;2.60;2.50;;;20.80;70.90;;;;;;4962601;28;20187;-72
2021/08/16 01:51:43;;;;;;;6.10;2.80;;;20.80;69.60;;;;;;4960212;28;20303;-72
2021/08/16 01:54:10;;;;;;;3.03;2.92;;;20.70;69.60;;;;;;4962012;28;20246;-72
2021/08/16 01:56:36;;;;;;;2.50;2.40;;;20.70;69.20;;;;;;4961916;28;20188;-72
2021/08/16 01:59:03;;;;;;;2.70;2.60;;;20.70;69.50;;;;;;4958094;28;20214;-72
2021/08/16 02:01:28;;;;;;;3.00;2.90;;;20.60;69.60;;;;;;4963298;28;20198;-72
2021/08/16 02:03:54;;;;;;;2.30;2.20;;;20.60;69.20;;;;;;4962291;28;20199;-72
2021/08/16 02:06:21;;;;;;;3.13;3.03;;;20.60;69.10;;;;;;4960081;28;20218;-72
2021/08/16 02:08:46;;;;;;;3.05;2.72;;;20.60;69.40;;;;;;4959911;28;20187;-71
2021/08/16 02:11:12;;;;;;;3.28;3.08;;;20.60;69.30;;;;;;4963222;28;20675;-71
2021/08/16 02:13:38;;;;;;;2.80;2.63;;;20.60;69.10;;;;;;4956479;28;20189;-72
2021/08/16 02:16:05;;;;;;;2.92;2.83;;;20.60;69.40;;;;;;4962536;28;20673;-72
2021/08/16 02:18:30;;;;;;;3.55;3.20;;;20.60;69.80;;;;;;4962022;28;20216;-72
2021/08/16 02:20:57;;;;;;;6.00;3.40;;;20.60;70.00;;;;;;4963108;28;20233;-71
2021/08/16 02:23:23;;;;;;;3.50;3.28;;;20.60;70.50;;;;;;4961936;28;20712;-71
2021/08/16 02:25:49;;;;;;;3.60;3.45;;;20.60;71.50;;;;;;4960910;28;20200;-71
2021/08/16 02:28:16;;;;;;;4.05;3.78;;;20.50;71.20;;;;;;4957287;28;20250;-71
2021/08/16 02:30:46;;;;;;;4.47;4.18;;;20.50;71.40;;;;;;4960970;28;20577;-71
2021/08/16 02:33:13;;;;;;;4.35;4.03;;;20.40;70.80;;;;;;4955797;28;20269;-71
2021/08/16 02:35:43;;;;;;;4.95;4.53;;;20.40;71.10;;;;;;4959965;28;20187;-71
2021/08/16 02:38:10;;;;;;;4.38;4.10;;;20.40;71.10;;;;;;4959803;28;20198;-72
2021/08/16 02:40:39;;;;;;;3.90;3.67;;;20.40;71.30;;;;;;4960590;28;20210;-71
2021/08/16 02:43:05;;;;;;;4.57;4.18;;;20.30;71.70;;;;;;4958522;28;21006;-72
2021/08/16 02:45:31;;;;;;;4.63;3.95;;;20.30;71.80;;;;;;4958220;28;20187;-71
2021/08/16 02:47:57;;;;;;;4.72;4.10;;;20.30;71.50;;;;;;4959608;28;20193;-72
2021/08/16 02:50:23;;;;;;;4.18;3.97;;;20.30;71.50;;;;;;4953546;28;20206;-72
2021/08/16 02:52:51;;;;;;;4.13;3.90;;;20.20;72.50;;;;;;4959381;28;20190;-72
2021/08/16 02:55:17;;;;;;;4.10;3.90;;;20.20;72.20;;;;;;4959992;28;20189;-71
2021/08/16 02:57:42;;;;;;;2.90;2.78;;;20.10;72.00;;;;;;4960574;28;20198;-72
2021/08/16 03:00:08;;;;;;;3.58;3.17;;;20.10;72.00;;;;;;4960923;28;20289;-73
2021/08/16 03:02:34;;;;;;;4.30;3.92;;;20.10;72.20;;;;;;4958888;28;20195;-73
2021/08/16 03:05:00;;;;;;;4.60;3.80;;;20.00;72.40;;;;;;4959577;28;20189;-73
2021/08/16 03:07:25;;;;;;;3.90;3.70;;;20.00;72.50;;;;;;4958431;28;20190;-72
2021/08/16 03:09:51;;;;;;;4.43;3.95;;;20.00;73.00;;;;;;4961437;28;20182;-72
2021/08/16 03:12:18;;;;;;;4.00;3.75;;;20.00;72.60;;;;;;4963896;28;20187;-72
2021/08/16 03:14:44;;;;;;;4.38;4.07;;;20.00;72.60;;;;;;4960520;28;20183;-72
2021/08/16 03:17:10;;;;;;;3.95;3.75;;;20.00;72.50;;;;;;4958218;28;20190;-72
2021/08/16 03:19:37;;;;;;;4.53;4.13;;;19.90;72.70;;;;;;4960465;28;20224;-73
2021/08/16 03:22:03;;;;;;;3.78;3.55;;;19.90;73.20;;;;;;4956574;28;20827;-71
2021/08/16 03:24:30;;;;;;;3.72;3.53;;;19.80;73.50;;;;;;4958095;28;20197;-73
2021/08/16 03:26:56;;;;;;;3.45;3.30;;;19.80;73.50;;;;;;4954793;28;20183;-72
2021/08/16 03:29:22;;;;;;;3.97;3.67;;;19.70;73.40;;;;;;4959556;28;20752;-71
2021/08/16 03:31:47;;;;;;;4.45;4.20;;;19.70;73.50;;;;;;4962513;28;20185;-72
2021/08/16 03:34:14;;;;;;;4.32;4.03;;;19.70;73.50;;;;;;4958325;28;20810;-71
2021/08/16 03:36:40;;;;;;;4.90;4.50;;;19.70;73.40;;;;;;4958161;28;20187;-72
2021/08/16 03:39:05;;;;;;;4.10;3.80;;;19.70;73.50;;;;;;4959600;28;20214;-71
2021/08/16 03:41:31;;;;;;;3.83;3.63;;;19.70;74.00;;;;;;4960070;28;20187;-72
2021/08/16 03:43:57;;;;;;;4.38;4.10;;;19.70;73.70;;;;;;4956757;28;20187;-72
2021/08/16 03:46:23;;;;;;;4.10;3.78;;;19.70;73.30;;;;;;4954974;28;20885;-72
2021/08/16 03:48:48;;;;;;;5.07;4.18;;;19.70;73.40;;;;;;4965220;28;20179;-72
2021/08/16 03:51:14;;;;;;;4.38;4.07;;;19.70;73.30;;;;;;4955724;28;20190;-72
2021/08/16 03:53:40;;;;;;;4.30;4.10;;;19.70;73.20;;;;;;4958057;28;20206;-71
2021/08/16 03:56:06;;;;;;;6.20;3.97;;;19.70;73.20;;;;;;4958803;28;20210;-73
2021/08/16 03:58:32;;;;;;;4.38;4.15;;;19.60;73.20;;;;;;4957640;28;20202;-73
2021/08/16 04:00:58;;;;;;;4.22;4.00;;;19.70;73.10;;;;;;4959308;28;20203;-73
2021/08/16 04:03:24;;;;;;;3.63;3.42;;;19.60;73.30;;;;;;4957919;28;20191;-74
2021/08/16 04:05:50;;;;;;;3.80;3.60;;;19.60;73.20;;;;;;4956750;28;20241;-73
2021/08/16 04:08:15;;;;;;;4.30;4.00;;;19.60;73.30;;;;;;4959841;28;20183;-72
2021/08/16 04:10:41;;;;;;;4.20;4.00;;;19.60;73.10;;;;;;4964307;28;20690;-72
2021/08/16 04:13:07;;;;;;;5.00;4.60;;;19.60;73.30;;;;;;4955878;28;20636;-73
2021/08/16 04:15:33;;;;;;;5.50;4.55;;;19.70;73.30;;;;;;4956636;28;20273;-73
2021/08/16 04:17:58;;;;;;;5.30;4.38;;;19.70;73.30;;;;;;4957369;28;20317;-72
2021/08/16 04:20:24;;;;;;;4.63;4.28;;;19.70;73.30;;;;;;4958332;28;20353;-75
2021/08/16 04:22:50;;;;;;;4.35;3.95;;;19.70;73.30;;;;;;4961598;28;20183;-75
2021/08/16 04:25:17;;;;;;;3.88;3.60;;;19.70;73.30;;;;;;4961220;28;20232;-75
2021/08/16 04:27:43;;;;;;;4.05;3.75;;;19.70;73.00;;;;;;4960565;28;20262;-75
2021/08/16 04:30:10;;;;;;;5.38;3.97;;;19.70;73.40;;;;;;4976863;28;20186;-75
2021/08/16 04:32:37;;;;;;;4.38;3.88;;;19.70;73.00;;;;;;4963306;28;20600;-74
2021/08/16 04:35:03;;;;;;;4.13;3.65;;;19.80;72.90;;;;;;4960187;28;20185;-75
2021/08/16 04:37:29;;;;;;;3.75;3.55;;;19.80;73.00;;;;;;4958840;28;20233;-75
2021/08/16 04:39:55;;;;;;;7.45;4.13;;;19.80;73.20;;;;;;4958102;28;20230;-74
2021/08/16 04:42:21;;;;;;;4.10;3.83;;;19.80;73.20;;;;;;4959160;28;20183;-75
2021/08/16 04:44:46;;;;;;;3.53;3.22;;;19.90;73.00;;;;;;4956713;28;20273;-75
2021/08/16 04:47:12;;;;;;;4.30;3.95;;;19.90;73.00;;;;;;4964440;28;20254;-75
2021/08/16 04:49:38;;;;;;;4.20;3.83;;;19.90;72.90;;;;;;4958988;28;20216;-75
2021/08/16 04:52:04;;;;;;;6.50;4.10;;;19.90;73.10;;;;;;4957316;28;20234;-75
2021/08/16 04:54:30;;;;;;;3.42;3.13;;;20.00;72.80;;;;;;4962758;28;20191;-73
2021/08/16 04:56:55;;;;;;;3.53;3.33;;;20.00;72.80;;;;;;4957472;28;20174;-76
2021/08/16 04:59:21;;;;;;;3.75;3.58;;;20.00;73.00;;;;;;4956170;28;20215;-75
2021/08/16 05:01:49;;;;;;;3.05;2.90;;;20.10;72.90;;;;;;4957586;28;20250;-76
2021/08/16 05:04:15;;;;;;;3.33;3.13;;;20.10;72.20;;;;;;4954440;28;20269;-76
2021/08/16 05:06:43;;;;;;;3.63;3.33;;;20.10;72.20;;;;;;4956724;28;20210;-75
2021/08/16 05:09:09;;;;;;;6.43;3.15;;;20.10;72.00;;;;;;4958548;28;20187;-75
2021/08/16 05:11:35;;;;;;;3.10;3.00;;;20.10;71.70;;;;;;4958585;28;20198;-75
2021/08/16 05:14:01;;;;;;;2.85;2.75;;;20.20;71.70;;;;;;4957681;28;20186;-75
2021/08/16 05:16:27;;;;;;;3.45;3.25;;;20.20;71.90;;;;;;4956293;28;20658;-75
2021/08/16 05:18:54;;;;;;;3.67;2.97;;;20.30;71.30;;;;;;4955708;28;20191;-75
2021/08/16 05:21:21;;;;;;;6.47;3.38;;;20.30;71.40;;;;;;4959455;28;20174;-75
2021/08/16 05:23:46;;;;;;;3.78;3.47;;;20.30;71.30;;;;;;4965457;28;20218;-75
2021/08/16 05:26:12;;;;;;;6.60;3.58;;;20.40;71.40;;;;;;4958853;28;20240;-73
2021/08/16 05:28:38;;;;;;;3.65;3.35;;;20.40;71.30;;;;;;4958429;28;20178;-75
2021/08/16 05:31:04;;;;;;;7.43;3.25;;;20.50;71.20;;;;;;4959379;28;20190;-76
2021/08/16 05:33:29;;;;;;;3.97;3.67;;;20.50;71.40;;;;;;4954188;28;20641;-74
2021/08/16 05:35:55;;;;;;;3.90;3.33;;;20.50;71.60;;;;;;4958670;28;20220;-74
2021/08/16 05:38:21;;;;;;;4.65;4.35;;;20.60;71.60;;;;;;4960650;28;20194;-74
2021/08/16 05:40:46;;;;;;;3.70;3.45;;;20.60;71.10;;;;;;4958856;28;20221;-75
2021/08/16 05:43:12;;;;;;;4.20;2.95;;;20.70;70.90;;;;;;4956168;28;20190;-76
2021/08/16 05:45:38;;;;;;;4.35;4.05;;;20.70;71.90;;;;;;4956895;28;20182;-74
2021/08/16 05:48:04;;;;;;;4.03;3.65;;;20.70;70.80;;;;;;4960044;28;20190;-75
2021/08/16 05:50:29;;;;;;;5.38;3.60;;;20.80;70.50;;;;;;4957575;28;20265;-76
2021/08/16 05:52:55;;;;;;;4.90;4.50;;;20.80;70.30;;;;;;4956062;28;20186;-76
2021/08/16 05:55:21;;;;;;;3.95;2.95;;;20.90;70.30;;;;;;4954203;28;20598;-74
2021/08/16 05:57:47;;;;;;;3.85;3.58;;;20.90;70.40;;;;;;4953216;28;20190;-75
2021/08/16 06:00:14;;;;;;;5.57;3.90;;;20.90;70.60;;;;;;4955312;28;20578;-75
2021/08/16 06:02:40;;;;;;;4.03;3.47;;;21.00;70.70;;;;;;4951411;28;20201;-74
2021/08/16 06:05:06;;;;;;;5.50;4.20;;;21.10;70.60;;;;;;4950147;28;20224;-76
2021/08/16 06:07:32;;;;;;;4.72;4.13;;;21.10;70.30;;;;;;4955657;28;20179;-75
2021/08/16 06:09:58;;;;;;;5.85;3.78;;;21.10;70.60;;;;;;4955516;28;20301;-75
2021/08/16 06:12:24;;;;;;;4.50;4.13;;;21.20;70.20;;;;;;4969886;28;20183;-74
2021/08/16 06:14:50;;;;;;;7.18;4.53;;;21.20;70.40;;;;;;4951603;28;20182;-74
2021/08/16 06:17:15;;;;;;;8.90;4.07;;;21.30;70.00;;;;;;4963964;28;20187;-75
2021/08/16 06:19:43;;;;;;;6.30;4.00;;;21.40;69.90;;;;;;4952917;28;20227;-74
2021/08/16 06:22:08;;;;;;;7.28;4.38;;;21.40;69.90;;;;;;4956162;28;20187;-74
2021/08/16 06:24:36;;;;;;;4.93;4.40;;;21.50;69.80;;;;;;4955567;28;20668;-75
2021/08/16 06:27:03;;;;;;;6.25;4.63;;;21.50;69.80;;;;;;4957296;28;20190;-76
2021/08/16 06:29:29;;;;;;;5.05;4.55;;;21.60;69.60;;;;;;4953850;28;20198;-76
2021/08/16 06:31:54;;;;;;;5.07;4.15;;;21.70;69.60;;;;;;4951774;28;20205;-75
2021/08/16 06:34:22;;;;;;;6.00;4.68;;;21.70;69.30;;;;;;4959087;28;20273;-76
2021/08/16 06:36:54;;;;;;;5.40;4.93;;;21.80;69.20;;;;;;4953577;28;20274;-75
2021/08/16 06:39:21;;;;;;;5.40;4.93;;;21.90;69.00;;;;;;4958308;28;20217;-76
2021/08/16 06:41:56;;;;;;;5.63;4.70;;;21.90;68.60;;;;;;4955508;28;20585;-76
2021/08/16 06:44:25;;;;;;;5.22;4.82;;;22.00;68.50;;;;;;4958996;28;20230;-75
2021/08/16 06:46:51;;;;;;;4.70;4.30;;;22.00;68.40;;;;;;4973334;28;20676;-76
2021/08/16 06:49:17;;;;;;;5.57;4.78;;;22.10;68.60;;;;;;4960527;28;20697;-76
2021/08/16 06:51:43;;;;;;;3.92;3.60;;;22.20;68.60;;;;;;4962348;28;20189;-76
2021/08/16 06:54:09;;;;;;;6.07;5.13;;;22.30;68.60;;;;;;4959755;28;20186;-76
2021/08/16 06:56:35;;;;;;;7.43;4.70;;;22.30;68.80;;;;;;4955229;28;20187;-75
2021/08/16 06:59:01;;;;;;;4.70;4.30;;;22.40;69.00;;;;;;4958468;28;20198;-76
2021/08/16 07:01:28;;;;;;;12.80;4.82;;;22.50;68.90;;;;;;4951361;28;20209;-76
2021/08/16 07:03:56;;;;;;;4.93;4.63;;;22.60;68.30;;;;;;4955588;28;20217;-75
2021/08/16 07:06:23;;;;;;;4.60;4.13;;;22.60;68.00;;;;;;4951175;28;20585;-75
2021/08/16 07:08:49;;;;;;;5.05;4.65;;;22.70;68.00;;;;;;4957523;28;20190;-76
2021/08/16 07:11:15;;;;;;;5.05;4.63;;;22.80;67.30;;;;;;4955139;28;20590;-76
2021/08/16 07:13:41;;;;;;;4.70;4.35;;;22.90;67.50;;;;;;4954921;28;20201;-76
2021/08/16 07:16:07;;;;;;;6.15;5.03;;;22.90;67.40;;;;;;4956097;28;20198;-76
2021/08/16 07:18:34;;;;;;;7.03;5.00;;;23.00;67.60;;;;;;4965860;28;20190;-74
2021/08/16 07:21:04;;;;;;;6.85;4.75;;;23.10;67.30;;;;;;4957116;28;20308;-74
2021/08/16 07:23:31;;;;;;;11.00;5.25;;;23.10;66.80;;;;;;4959352;28;20198;-76
2021/08/16 07:26:00;;;;;;;6.22;5.25;;;23.20;66.80;;;;;;4959054;28;20595;-75
2021/08/16 07:28:30;;;;;;;6.78;5.18;;;23.30;67.20;;;;;;4953211;28;20236;-74
2021/08/16 07:30:58;;;;;;;5.60;4.53;;;23.40;66.80;;;;;;4955857;28;20183;-73
2021/08/16 07:33:24;;;;;;;8.63;5.43;;;23.40;67.20;;;;;;4955381;28;20261;-76
2021/08/16 07:35:50;;;;;;;5.65;5.15;;;23.50;66.90;;;;;;4959273;28;20274;-76
2021/08/16 07:38:16;;;;;;;9.30;4.22;;;23.60;66.20;;;;;;4954693;28;20191;-75
2021/08/16 07:40:42;;;;;;;4.75;4.45;;;23.70;66.00;;;;;;4953473;28;20604;-76
2021/08/16 07:43:09;;;;;;;7.60;5.10;;;23.80;66.20;;;;;;4959831;28;20182;-75
2021/08/16 07:45:35;;;;;;;5.82;4.18;;;23.80;65.70;;;;;;4957789;28;20735;-75
2021/08/16 07:48:03;;;;;;;5.20;4.70;;;23.90;65.80;;;;;;4956504;28;20210;-75
2021/08/16 07:50:29;;;;;;;5.72;4.70;;;23.90;65.40;;;;;;4951880;28;20217;-76
2021/08/16 07:52:55;;;;;;;6.65;5.10;;;24.00;65.00;;;;;;4957757;28;20296;-76
2021/08/16 07:55:21;;;;;;;4.65;4.25;;;24.00;65.30;;;;;;4960958;28;20597;-74
2021/08/16 07:57:47;;;;;;;5.18;4.78;;;24.10;65.30;;;;;;4951588;28;20269;-75
2021/08/16 08:00:13;;;;;;;3.95;3.85;;;24.20;65.50;;;;;;4954426;28;20228;-75
2021/08/16 08:02:46;;;;;;;4.68;4.20;;;24.30;65.10;;;;;;4954344;28;20213;-75
2021/08/16 08:05:14;;;;;;;4.68;4.20;;;24.40;65.10;;;;;;4957476;28;20193;-75
2021/08/16 08:07:41;;;;;;;4.78;4.38;;;24.40;65.00;;;;;;4955833;28;20269;-75
2021/08/16 08:10:08;;;;;;;5.05;4.68;;;24.50;65.20;;;;;;4957130;28;20209;-75
2021/08/16 08:12:33;;;;;;;5.25;4.60;;;24.60;64.20;;;;;;4950900;28;20579;-75
2021/08/16 08:14:59;;;;;;;4.57;4.25;;;24.60;63.90;;;;;;4955464;28;20182;-74
2021/08/16 08:17:25;;;;;;;5.15;4.75;;;24.70;64.10;;;;;;4958864;28;20183;-74
2021/08/16 08:19:51;;;;;;;4.40;4.10;;;24.80;64.20;;;;;;4954158;28;20221;-74
2021/08/16 08:22:17;;;;;;;5.05;4.70;;;24.90;64.00;;;;;;4954870;28;20614;-76
2021/08/16 08:24:43;;;;;;;4.82;4.40;;;25.00;64.30;;;;;;4953638;28;20183;-75
2021/08/16 08:27:12;;;;;;;5.10;4.75;;;25.10;64.50;;;;;;4957022;28;20190;-75
2021/08/16 08:29:37;;;;;;;5.30;4.82;;;25.30;64.30;;;;;;4949086;28;20584;-75
2021/08/16 08:32:03;;;;;;;4.50;4.22;;;25.40;64.20;;;;;;4955569;28;20187;-76
2021/08/16 08:34:29;;;;;;;5.78;4.32;;;25.50;63.80;;;;;;4954698;28;20198;-76
2021/08/16 08:36:55;;;;;;;4.28;4.03;;;25.60;63.40;;;;;;4953496;28;20187;-76
2021/08/16 08:39:20;;;;;;;4.85;4.65;;;25.80;63.20;;;;;;4954268;28;20297;-76
2021/08/16 08:41:47;;;;;;;4.60;4.20;;;25.90;62.90;;;;;;4956800;28;20216;-75
2021/08/16 08:44:14;;;;;;;4.47;4.18;;;26.00;62.60;;;;;;4957533;28;20182;-76
2021/08/16 08:46:41;;;;;;;4.55;4.18;;;26.10;62.60;;;;;;4952735;28;20265;-74
2021/08/16 08:49:08;;;;;;;4.57;4.30;;;26.30;62.10;;;;;;4954950;28;20667;-74
2021/08/16 08:51:37;;;;;;;6.93;4.28;;;26.40;61.50;;;;;;4949043;28;20236;-74
2021/08/16 08:54:06;;;;;;;4.75;4.22;;;26.50;61.50;;;;;;4956489;28;20182;-74
2021/08/16 08:56:33;;;;;;;4.60;4.13;;;26.60;61.60;;;;;;4956285;28;20265;-74
2021/08/16 08:58:59;;;;;;;4.32;4.03;;;26.80;61.70;;;;;;4956283;28;20724;-74
2021/08/16 09:01:26;;;;;;;4.18;3.97;;;26.90;61.70;;;;;;4958452;28;20589;-74
2021/08/16 09:03:55;;;;;;;4.20;3.95;;;27.10;61.20;;;;;;4958685;28;20566;-74
2021/08/16 09:06:31;;;;;;;4.53;4.22;;;27.20;61.30;;;;;;4953961;28;20677;-74
2021/08/16 09:08:58;;;;;;;3.78;3.58;;;27.40;61.00;;;;;;4955197;28;20580;-74
2021/08/16 09:11:26;;;;;;;3.80;3.60;;;27.60;60.30;;;;;;4955825;28;20191;-74
2021/08/16 09:14:00;;;;;;;4.55;4.25;;;27.80;60.20;;;;;;4952485;28;20186;-74
2021/08/16 09:16:34;;;;;;;4.95;4.38;;;28.00;59.30;;;;;;4954787;28;20186;-74
2021/08/16 09:19:12;;;;;;;4.18;3.85;;;28.20;58.80;;;;;;4955269;28;20270;-74
2021/08/16 09:21:41;;;;;;;3.97;3.78;;;28.50;58.70;;;;;;4957738;28;20566;-74
2021/08/16 09:24:06;;;;;;;4.80;4.50;;;28.80;58.30;;;;;;4949755;28;20187;-74
2021/08/16 09:26:35;;;;;;;3.85;3.65;;;29.10;57.90;;;;;;4956569;28;20194;-74
2021/08/16 09:29:18;;;;;;;4.43;3.97;;;29.40;56.80;;;;;;4959484;28;20587;-75
2021/08/16 09:31:55;;;;;;;4.70;4.05;;;29.80;56.30;;;;;;4957015;28;20285;-74
2021/08/16 09:34:35;;;;;;;4.38;4.03;;;30.20;56.20;;;;;;4954957;28;20200;-75
2021/08/16 09:37:13;;;;;;;4.40;4.13;;;30.80;55.70;;;;;;4953060;28;20210;-76
2021/08/16 09:39:39;;;;;;;3.92;3.72;;;31.40;53.60;;;;;;4953449;28;20233;-74
2021/08/16 09:42:05;;;;;;;4.43;4.22;;;31.90;53.60;;;;;;4951660;28;20671;-74
2021/08/16 09:44:31;;;;;;;4.57;4.28;;;32.40;52.30;;;;;;4957247;28;20225;-74
2021/08/16 09:47:05;;;;;;;3.85;3.65;;;32.90;51.70;;;;;;4954996;28;20183;-73
2021/08/16 09:49:31;;;;;;;5.28;3.72;;;33.50;50.90;;;;;;4954062;28;20191;-73
2021/08/16 09:52:06;;;;;;;4.50;3.75;;;34.10;49.90;;;;;;4956214;28;20232;-74
2021/08/16 09:54:34;;;;;;;3.72;3.42;;;35.00;49.60;;;;;;4961337;28;20254;-75
2021/08/16 09:57:01;;;;;;;3.85;3.65;;;35.70;48.60;;;;;;4959939;28;20182;-75
2021/08/16 09:59:28;;;;;;;4.30;3.67;;;36.40;47.50;;;;;;4964241;28;20217;-75
2021/08/16 10:01:55;;;;;;;3.63;3.45;;;37.10;45.80;;;;;;4959094;28;20181;-75
2021/08/16 10:04:21;;;;;;;3.88;3.58;;;37.90;46.40;;;;;;4954466;28;20190;-75
2021/08/16 10:06:49;;;;;;;3.50;3.03;;;38.70;44.40;;;;;;4951499;28;20249;-75
2021/08/16 10:09:17;;;;;;;3.20;3.00;;;39.40;44.60;;;;;;4953334;28;20908;-76
2021/08/16 10:11:43;;;;;;;3.75;3.50;;;40.00;43.30;;;;;;4952461;28;20190;-76
2021/08/16 10:14:09;;;;;;;3.60;3.30;;;40.60;42.60;;;;;;4961080;28;20675;-76
2021/08/16 10:16:42;;;;;;;3.15;3.05;;;41.10;43.20;;;;;;4958705;28;20194;-75
2021/08/16 10:19:15;;;;;;;3.25;3.25;;;41.50;43.00;;;;;;4955242;28;21148;-75
2021/08/16 10:21:41;;;;;;;3.22;3.05;;;41.90;41.20;;;;;;4956974;28;20194;-74
2021/08/16 10:24:19;;;;;;;5.03;3.30;;;42.30;41.60;;;;;;4962601;28;20190;-75
2021/08/16 10:27:04;;;;;;;3.10;2.95;;;42.60;40.30;;;;;;4964098;28;20189;-75
2021/08/16 10:29:31;;;;;;;3.42;3.22;;;42.80;40.50;;;;;;4959878;28;20211;-75
2021/08/16 10:31:59;;;;;;;6.30;2.92;;;43.00;39.80;;;;;;4958549;28;20192;-75
2021/08/16 10:34:36;;;;;;;5.03;3.35;;;42.90;41.20;;;;;;4952979;28;20187;-75
2021/08/16 10:37:05;;;;;;;4.15;2.80;;;42.80;39.70;;;;;;4960865;28;20832;-75
2021/08/16 10:39:51;;;;;;;3.10;3.10;;;42.80;41.00;;;;;;4961715;28;20269;-75
2021/08/16 10:42:18;;;;;;;3.58;3.47;;;42.90;39.50;;;;;;4978756;28;20187;-75
2021/08/16 10:44:47;;;;;;;4.20;3.67;;;43.10;39.50;;;;;;4951885;28;20610;-75
2021/08/16 10:47:33;;;;;;;3.38;3.28;;;43.20;40.10;;;;;;4956494;28;20189;-75
2021/08/16 10:50:01;;;;;;;3.30;3.17;;;43.00;39.10;;;;;;4954019;28;20594;-75
2021/08/16 10:52:27;;;;;;;3.28;3.17;;;42.90;40.80;;;;;;4955905;28;20333;-75
2021/08/16 10:54:53;;;;;;;3.20;3.10;;;43.10;40.50;;;;;;4958719;28;20803;-75
2021/08/16 10:57:20;;;;;;;3.78;3.53;;;43.20;40.70;;;;;;4956960;28;20931;-75
2021/08/16 10:59:46;;;;;;;2.88;2.88;;;43.50;41.20;;;;;;4959951;28;20592;-75
2021/08/16 11:02:12;;;;;;;3.33;3.22;;;43.80;40.10;;;;;;4955490;28;20213;-75
2021/08/16 11:04:40;;;;;;;3.40;3.30;;;44.30;39.30;;;;;;4960663;28;20181;-76
2021/08/16 11:07:09;;;;;;;3.50;3.40;;;44.90;39.80;;;;;;4965336;28;20946;-75
2021/08/16 11:09:39;;;;;;;3.40;3.20;;;45.50;40.00;;;;;;4962153;28;20715;-75
2021/08/16 11:12:10;;;;;;;3.13;3.13;;;46.00;39.20;;;;;;4957216;28;20185;-75
2021/08/16 11:14:39;;;;;;;4.20;2.88;;;46.60;38.90;;;;;;4958761;28;20189;-75
2021/08/16 11:17:05;;;;;;;3.67;3.30;;;46.80;39.40;;;;;;4962808;28;20182;-75
2021/08/16 11:19:42;;;;;;;3.78;2.92;;;47.00;37.60;;;;;;4960414;28;20217;-76
2021/08/16 11:22:09;;;;;;;2.90;2.90;;;47.40;37.30;;;;;;4960652;28;20185;-76
2021/08/16 11:24:39;;;;;;;3.55;3.45;;;47.70;38.70;;;;;;4960726;28;20601;-73
2021/08/16 11:27:09;;;;;;;3.17;3.00;;;47.90;36.60;;;;;;4957152;28;20581;-74
2021/08/16 11:29:35;;;;;;;3.63;3.45;;;48.10;36.50;;;;;;4957707;28;20664;-74
2021/08/16 11:32:03;;;;;;;2.60;2.50;;;47.90;37.10;;;;;;4957127;28;20728;-74
2021/08/16 11:34:31;;;;;;;3.40;3.33;;;47.50;38.40;;;;;;4957689;28;20640;-73
2021/08/16 11:36:58;;;;;;;3.20;3.13;;;47.10;38.70;;;;;;4953511;28;20614;-73
2021/08/16 11:39:31;;;;;;;3.72;3.30;;;46.50;38.30;;;;;;4957633;28;20224;-74
2021/08/16 11:41:58;;;;;;;3.10;3.00;;;45.90;36.90;;;;;;4957509;28;20178;-76
2021/08/16 11:44:25;;;;;;;5.43;3.15;;;45.40;38.80;;;;;;4959278;28;20196;-75
2021/08/16 11:46:51;;;;;;;3.15;3.05;;;45.20;39.30;;;;;;4956249;28;20194;-75
2021/08/16 11:49:17;;;;;;;3.25;3.22;;;45.30;39.30;;;;;;4955843;28;20190;-76
2021/08/16 11:51:45;;;;;;;3.03;2.90;;;45.60;38.80;;;;;;4952773;28;20442;-75
2021/08/16 11:54:13;;;;;;;2.97;2.78;;;45.70;38.20;;;;;;4952174;28;20221;-76
2021/08/16 11:56:51;;;;;;;2.63;2.63;;;46.10;38.60;;;;;;4956811;28;20614;-75
2021/08/16 11:59:17;;;;;;;2.65;2.60;;;46.60;35.80;;;;;;4957751;28;20229;-75
2021/08/16 12:01:43;;;;;;;2.78;2.78;;;46.50;36.70;;;;;;4955943;28;20214;-75
2021/08/16 12:04:11;;;;;;;3.05;2.88;;;46.40;38.00;;;;;;4957101;28;20192;-76
2021/08/16 12:06:37;;;;;;;3.10;3.00;;;46.50;37.40;;;;;;4959202;28;20569;-75
2021/08/16 12:09:04;;;;;;;2.90;2.90;;;46.80;37.20;;;;;;4953916;28;20273;-76
2021/08/16 12:11:30;;;;;;;2.85;2.70;;;46.90;36.60;;;;;;4955956;28;20553;-76
2021/08/16 12:13:57;;;;;;;2.67;2.67;;;47.10;37.90;;;;;;4958505;28;20193;-76
2021/08/16 12:16:32;;;;;;;2.92;2.72;;;47.40;38.10;;;;;;4959119;28;20252;-75
2021/08/16 12:18:58;;;;;;;2.20;2.20;;;47.60;37.40;;;;;;4952795;28;20193;-75
2021/08/16 12:21:24;;;;;;;2.55;2.35;;;47.80;35.80;;;;;;4950481;28;20190;-75
2021/08/16 12:23:54;;;;;;;2.58;2.58;;;47.80;36.50;;;;;;4953953;28;20629;-76
2021/08/16 12:26:32;;;;;;;2.42;2.42;;;47.90;35.50;;;;;;4953407;28;20689;-77
2021/08/16 12:28:58;;;;;;;2.70;2.63;;;48.00;35.60;;;;;;4954576;28;20182;-75
2021/08/16 12:31:27;;;;;;;2.60;2.50;;;48.10;37.00;;;;;;4954540;28;20605;-75
2021/08/16 12:34:01;;;;;;;2.33;2.22;;;48.20;36.30;;;;;;4955299;28;20469;-75
2021/08/16 12:36:32;;;;;;;2.95;2.35;;;48.30;34.90;;;;;;4955700;28;20202;-75
2021/08/16 12:39:05;;;;;;;2.13;2.13;;;48.50;35.40;;;;;;4953983;28;20669;-75
2021/08/16 12:41:32;;;;;;;2.05;2.05;;;48.60;35.90;;;;;;4957921;28;20193;-76
2021/08/16 12:43:59;;;;;;;2.83;2.50;;;48.80;36.60;;;;;;4959616;28;20190;-75
2021/08/16 12:46:32;;;;;;;2.38;2.38;;;48.70;34.90;;;;;;4955690;28;20193;-75
2021/08/16 12:48:59;;;;;;;2.28;2.15;;;48.00;34.50;;;;;;4956551;28;20194;-76